Time;durP1;ratioP1;P1;durP2;ratioP2;P2;SDS_P1;SDS_P2;PMS_P1;PMS_P2;Temp;Humidity;BMP_temperature;BMP_pressure;BME280_temperature;BME280_humidity;BME280_pressure;Samples;Min_cycle;Max_cycle;Signal;HPM_P1;HPM_P2
2022/04/05 00:01:19;;;;;;;8.40;7.47;;;8.40;68.00;;;;;;5046979;28;20195;-80
2022/04/05 00:03:44;;;;;;;8.63;7.37;;;8.40;68.60;;;;;;5061229;28;20210;-80
2022/04/05 00:06:10;;;;;;;8.80;7.20;;;8.40;69.40;;;;;;5048810;28;20197;-80
2022/04/05 00:08:36;;;;;;;11.13;7.03;;;8.30;71.20;;;;;;5033182;28;20545;-80
2022/04/05 00:11:02;;;;;;;8.77;7.47;;;8.30;71.80;;;;;;5046445;28;20192;-80
2022/04/05 00:13:27;;;;;;;10.10;7.50;;;8.30;72.90;;;;;;5043397;28;20265;-80
2022/04/05 00:15:54;;;;;;;7.30;6.60;;;8.20;75.00;;;;;;5039927;28;20182;-80
2022/04/05 00:18:19;;;;;;;14.03;7.37;;;8.20;78.20;;;;;;5049103;28;20198;-77
2022/04/05 00:20:46;;;;;;;9.07;7.57;;;8.20;78.70;;;;;;5043983;28;20677;-77
2022/04/05 00:23:12;;;;;;;7.23;6.43;;;8.20;84.70;;;;;;5045580;28;20178;-77
2022/04/05 00:25:37;;;;;;;9.23;7.27;;;8.20;87.40;;;;;;5028629;28;20586;-78
2022/04/05 00:28:04;;;;;;;7.57;6.47;;;8.20;88.10;;;;;;5049003;28;20181;-77
2022/04/05 00:30:29;;;;;;;7.27;6.43;;;8.20;90.50;;;;;;5046712;28;20597;-77
2022/04/05 00:32:55;;;;;;;8.30;7.03;;;8.20;92.80;;;;;;5047710;28;20189;-77
2022/04/05 00:35:21;;;;;;;10.37;7.27;;;8.20;94.00;;;;;;5047807;28;20233;-77
2022/04/05 00:37:48;;;;;;;9.13;7.17;;;8.20;97.80;;;;;;5049539;28;20188;-77
2022/04/05 00:40:14;;;;;;;10.67;7.37;;;8.10;96.40;;;;;;5047609;28;20213;-77
2022/04/05 00:42:40;;;;;;;7.10;6.40;;;8.10;99.90;;;;;;5048295;28;20182;-77
2022/04/05 00:45:08;;;;;;;7.53;6.47;;;8.00;99.90;;;;;;5052957;28;20209;-77
2022/04/05 00:47:34;;;;;;;8.67;7.17;;;8.00;99.90;;;;;;5050965;28;20178;-77
2022/04/05 00:50:01;;;;;;;9.20;7.07;;;8.00;99.90;;;;;;5049226;28;20194;-77
2022/04/05 00:52:27;;;;;;;12.13;7.70;;;8.00;99.90;;;;;;5047945;28;20186;-77
2022/04/05 00:54:55;;;;;;;10.50;6.83;;;7.90;99.90;;;;;;5049737;28;20201;-77
2022/04/05 00:57:24;;;;;;;7.03;6.33;;;7.90;99.90;;;;;;5045761;28;21975;-77
2022/04/05 00:59:56;;;;;;;7.23;6.10;;;7.90;99.90;;;;;;5050956;28;20233;-77
2022/04/05 01:02:23;;;;;;;8.97;7.70;;;7.80;99.90;;;;;;5058369;28;20213;-78
2022/04/05 01:04:49;;;;;;;9.13;7.10;;;7.90;99.90;;;;;;5048962;28;20701;-77
2022/04/05 01:07:17;;;;;;;9.50;6.97;;;7.90;99.90;;;;;;5049234;28;20182;-77
2022/04/05 01:09:43;;;;;;;9.27;7.00;;;7.90;99.90;;;;;;5030413;28;20200;-77
2022/04/05 01:12:12;;;;;;;8.07;6.30;;;7.80;99.90;;;;;;5050602;28;20650;-77
2022/04/05 01:14:40;;;;;;;8.83;6.80;;;7.80;99.90;;;;;;5048729;28;20209;-77
2022/04/05 01:17:08;;;;;;;9.13;7.80;;;7.80;99.90;;;;;;5049781;28;20197;-77
2022/04/05 01:19:34;;;;;;;9.63;7.87;;;7.80;99.90;;;;;;5051341;28;20627;-77
2022/04/05 01:22:01;;;;;;;9.87;7.20;;;7.80;99.90;;;;;;5043042;28;20181;-77
2022/04/05 01:24:27;;;;;;;9.40;7.23;;;7.80;99.90;;;;;;5046077;28;20207;-77
2022/04/05 01:26:55;;;;;;;9.03;7.50;;;7.80;99.90;;;;;;5047338;28;20692;-77
2022/04/05 01:29:23;;;;;;;9.30;7.37;;;7.70;99.90;;;;;;5048068;28;20178;-77
2022/04/05 01:31:51;;;;;;;10.20;7.37;;;7.70;99.90;;;;;;5043456;28;20265;-77
2022/04/05 01:34:20;;;;;;;10.07;8.27;;;7.70;99.90;;;;;;5032252;28;20286;-77
2022/04/05 01:36:52;;;;;;;13.07;8.63;;;7.70;99.90;;;;;;5045753;28;20209;-77
2022/04/05 01:39:22;;;;;;;9.40;7.50;;;7.60;99.90;;;;;;5049922;28;20296;-77
2022/04/05 01:41:57;;;;;;;9.17;8.13;;;7.60;99.90;;;;;;5050501;28;20170;-77
2022/04/05 01:44:24;;;;;;;9.47;8.10;;;7.60;99.90;;;;;;5050043;28;20251;-77
2022/04/05 01:46:50;;;;;;;8.60;7.53;;;7.50;99.90;;;;;;5033022;28;20186;-77
2022/04/05 01:49:17;;;;;;;9.47;8.30;;;7.50;99.90;;;;;;5065117;28;20185;-77
2022/04/05 01:51:44;;;;;;;9.20;7.97;;;7.50;99.90;;;;;;5048305;28;20243;-77
2022/04/05 01:54:13;;;;;;;8.53;7.00;;;7.50;99.90;;;;;;5040325;28;20768;-76
2022/04/05 01:56:43;;;;;;;8.20;6.07;;;7.50;99.90;;;;;;5047889;28;20272;-77
2022/04/05 01:59:14;;;;;;;8.83;6.53;;;7.50;99.90;;;;;;5048088;28;20216;-77
2022/04/05 02:01:41;;;;;;;11.40;7.10;;;7.50;99.90;;;;;;5049302;28;20174;-77
2022/04/05 02:04:10;;;;;;;8.40;6.00;;;7.50;99.90;;;;;;5045969;28;20206;-77
2022/04/05 02:06:42;;;;;;;8.77;6.63;;;7.60;99.90;;;;;;5049033;28;20224;-77
2022/04/05 02:09:09;;;;;;;8.87;6.67;;;7.60;99.90;;;;;;5032030;28;20195;-77
2022/04/05 02:11:35;;;;;;;8.27;6.80;;;7.60;99.90;;;;;;5046560;28;20268;-77
2022/04/05 02:14:13;;;;;;;6.57;5.93;;;7.60;99.90;;;;;;5042723;28;20205;-77
2022/04/05 02:16:39;;;;;;;6.07;5.33;;;7.60;99.90;;;;;;5049394;28;20560;-77
2022/04/05 02:19:07;;;;;;;6.20;5.40;;;7.60;99.90;;;;;;5042752;28;20213;-77
2022/04/05 02:21:35;;;;;;;5.93;5.20;;;7.60;99.90;;;;;;5048637;28;20220;-77
2022/04/05 02:24:02;;;;;;;8.33;5.30;;;7.70;99.90;;;;;;5030849;28;20206;-77
2022/04/05 02:26:33;;;;;;;6.40;5.60;;;7.70;99.90;;;;;;5046614;28;20676;-77
2022/04/05 02:29:00;;;;;;;8.53;5.43;;;7.70;99.90;;;;;;5046860;28;20186;-77
2022/04/05 02:31:30;;;;;;;6.47;5.60;;;7.70;99.90;;;;;;5026384;28;20187;-77
2022/04/05 02:33:57;;;;;;;6.07;5.33;;;7.70;99.90;;;;;;5047543;28;20209;-77
2022/04/05 02:36:33;;;;;;;5.53;5.00;;;7.70;99.90;;;;;;5034128;28;20185;-77
2022/04/05 02:39:00;;;;;;;5.27;4.77;;;7.80;99.90;;;;;;5046234;28;20199;-77
2022/04/05 02:41:28;;;;;;;6.70;5.30;;;7.80;99.90;;;;;;5029679;28;20261;-77
2022/04/05 02:43:55;;;;;;;7.77;6.13;;;7.80;99.90;;;;;;5031596;28;20216;-77
2022/04/05 02:46:22;;;;;;;7.13;6.43;;;7.80;99.90;;;;;;5044095;28;20189;-77
2022/04/05 02:48:53;;;;;;;8.40;6.53;;;7.70;99.90;;;;;;5031414;28;20307;-77
2022/04/05 02:51:25;;;;;;;7.97;6.20;;;7.70;99.90;;;;;;5044833;28;20182;-77
2022/04/05 02:53:53;;;;;;;8.97;6.77;;;7.60;99.90;;;;;;5030204;28;20246;-77
2022/04/05 02:56:18;;;;;;;8.03;6.53;;;7.60;99.90;;;;;;5049677;28;20201;-77
2022/04/05 02:58:48;;;;;;;7.93;6.30;;;7.60;99.90;;;;;;5044885;28;21050;-77
2022/04/05 03:01:16;;;;;;;7.50;6.30;;;7.60;99.90;;;;;;5030664;28;20272;-76
2022/04/05 03:03:42;;;;;;;8.90;6.70;;;7.50;99.90;;;;;;5041957;28;20190;-77
2022/04/05 03:06:10;;;;;;;8.37;6.80;;;7.50;99.90;;;;;;5047398;28;20181;-77
2022/04/05 03:08:38;;;;;;;8.43;6.60;;;7.50;99.90;;;;;;5031404;28;20271;-77
2022/04/05 03:11:06;;;;;;;9.20;7.00;;;7.40;99.90;;;;;;5049166;28;20190;-79
2022/04/05 03:13:33;;;;;;;8.70;7.57;;;7.40;99.90;;;;;;5050057;28;20178;-79
2022/04/05 03:15:59;;;;;;;8.17;6.70;;;7.40;99.90;;;;;;5045000;28;20173;-79
2022/04/05 03:18:27;;;;;;;10.03;6.70;;;7.40;99.90;;;;;;5057385;28;20185;-79
2022/04/05 03:20:53;;;;;;;9.77;7.23;;;7.40;99.90;;;;;;5050430;28;20220;-79
2022/04/05 03:23:21;;;;;;;8.50;7.33;;;7.40;99.90;;;;;;5050740;28;20183;-79
2022/04/05 03:25:48;;;;;;;9.90;7.63;;;7.40;99.90;;;;;;5037572;28;20222;-79
2022/04/05 03:28:14;;;;;;;7.67;6.70;;;7.40;99.90;;;;;;5047824;28;20178;-77
2022/04/05 03:30:41;;;;;;;9.77;7.40;;;7.40;99.90;;;;;;5046667;28;20253;-77
2022/04/05 03:33:08;;;;;;;9.50;7.43;;;7.40;99.90;;;;;;5045769;28;20185;-77
2022/04/05 03:35:34;;;;;;;9.97;7.73;;;7.40;99.90;;;;;;5044210;28;20209;-77
2022/04/05 03:38:01;;;;;;;7.30;6.60;;;7.40;99.90;;;;;;5046112;28;20297;-77
2022/04/05 03:40:28;;;;;;;8.40;7.00;;;7.40;99.90;;;;;;5048489;28;20206;-77
2022/04/05 03:42:55;;;;;;;9.27;6.97;;;7.30;99.90;;;;;;5045633;28;20221;-77
2022/04/05 03:45:22;;;;;;;7.63;6.90;;;7.40;99.90;;;;;;5051149;28;20220;-78
2022/04/05 03:47:48;;;;;;;10.17;7.43;;;7.30;99.90;;;;;;5044898;28;20662;-76
2022/04/05 03:50:15;;;;;;;8.93;6.80;;;7.30;99.90;;;;;;5048973;28;20587;-77
2022/04/05 03:52:43;;;;;;;7.63;6.40;;;7.30;99.90;;;;;;5028946;28;20653;-77
2022/04/05 03:55:12;;;;;;;8.40;7.10;;;7.30;99.90;;;;;;5047305;28;20237;-77
2022/04/05 03:57:43;;;;;;;7.23;6.37;;;7.30;99.90;;;;;;5049692;28;20272;-77
2022/04/05 04:00:10;;;;;;;8.93;6.83;;;7.30;99.90;;;;;;5050060;28;20228;-77
2022/04/05 04:02:41;;;;;;;7.23;6.37;;;7.30;99.90;;;;;;5048529;28;20193;-77
2022/04/05 04:05:10;;;;;;;9.40;6.73;;;7.30;99.90;;;;;;5050644;28;20281;-77
2022/04/05 04:07:40;;;;;;;9.33;6.97;;;7.30;99.90;;;;;;5050679;28;20190;-77
2022/04/05 04:10:08;;;;;;;8.03;6.87;;;7.30;99.90;;;;;;5047315;28;20213;-77
2022/04/05 04:12:34;;;;;;;9.40;6.77;;;7.30;99.90;;;;;;5035694;28;20202;-77
2022/04/05 04:15:00;;;;;;;8.27;6.97;;;7.30;99.90;;;;;;5047876;28;20292;-77
2022/04/05 04:17:26;;;;;;;7.63;6.07;;;7.30;99.90;;;;;;5032451;28;20205;-77
2022/04/05 04:19:52;;;;;;;8.67;6.50;;;7.30;99.90;;;;;;5027128;28;20207;-77
2022/04/05 04:22:18;;;;;;;7.20;6.10;;;7.30;99.90;;;;;;5051331;28;20173;-77
2022/04/05 04:24:45;;;;;;;9.03;6.60;;;7.30;99.90;;;;;;5050874;28;20197;-77
2022/04/05 04:27:11;;;;;;;9.23;7.17;;;7.30;99.90;;;;;;5049740;28;20546;-78
2022/04/05 04:29:37;;;;;;;7.90;7.07;;;7.20;99.90;;;;;;5050760;28;20205;-78
2022/04/05 04:32:04;;;;;;;10.20;7.40;;;7.20;99.90;;;;;;5052792;28;20171;-78
2022/04/05 04:34:30;;;;;;;8.67;7.37;;;7.20;99.90;;;;;;5049244;28;20194;-77
2022/04/05 04:36:57;;;;;;;9.50;7.17;;;7.20;99.90;;;;;;5053180;28;20185;-77
2022/04/05 04:39:23;;;;;;;8.27;7.17;;;7.10;99.90;;;;;;5049486;28;20223;-78
2022/04/05 04:41:49;;;;;;;9.37;8.10;;;7.10;99.90;;;;;;5050687;28;20277;-78
2022/04/05 04:44:15;;;;;;;10.43;8.20;;;7.10;99.90;;;;;;5050652;28;20272;-77
2022/04/05 04:46:41;;;;;;;11.13;8.53;;;7.10;99.90;;;;;;5049433;28;20959;-77
2022/04/05 04:49:06;;;;;;;9.40;7.87;;;7.00;99.90;;;;;;5054726;28;20182;-78
2022/04/05 04:51:32;;;;;;;8.60;7.67;;;7.00;99.90;;;;;;5052456;28;20178;-78
2022/04/05 04:53:58;;;;;;;9.30;7.83;;;7.00;99.90;;;;;;5051961;28;20212;-78
2022/04/05 04:56:24;;;;;;;9.93;8.23;;;6.90;99.90;;;;;;5033683;28;20469;-78
2022/04/05 04:58:50;;;;;;;10.23;8.10;;;7.00;99.90;;;;;;5049395;28;20197;-78
2022/04/05 05:01:15;;;;;;;9.73;8.27;;;7.00;99.90;;;;;;5030184;28;20186;-78
2022/04/05 05:03:42;;;;;;;12.20;9.27;;;6.90;99.90;;;;;;5049562;28;20292;-78
2022/04/05 05:06:08;;;;;;;8.80;7.83;;;6.90;99.90;;;;;;5047288;28;20272;-77
2022/04/05 05:08:33;;;;;;;14.50;10.00;;;6.90;99.90;;;;;;5050123;28;20674;-79
2022/04/05 05:11:00;;;;;;;14.57;10.30;;;6.90;99.90;;;;;;5046543;28;20205;-79
2022/04/05 05:13:25;;;;;;;12.90;9.20;;;6.90;99.90;;;;;;5047256;28;20186;-77
2022/04/05 05:15:51;;;;;;;12.13;9.68;;;6.90;99.90;;;;;;5044586;28;20900;-77
2022/04/05 05:18:17;;;;;;;11.27;9.50;;;6.80;99.90;;;;;;5049766;28;20275;-76
2022/04/05 05:20:44;;;;;;;11.20;8.97;;;6.90;99.90;;;;;;5051155;28;20240;-78
2022/04/05 05:23:09;;;;;;;12.17;8.90;;;6.90;99.90;;;;;;5055210;28;20228;-79
2022/04/05 05:25:35;;;;;;;12.50;9.67;;;6.90;99.90;;;;;;5036600;28;20610;-77
2022/04/05 05:28:02;;;;;;;11.23;9.67;;;6.90;99.90;;;;;;5048060;28;20186;-80
2022/04/05 05:30:28;;;;;;;12.80;10.83;;;6.90;99.90;;;;;;5054445;28;20185;-76
2022/04/05 05:32:53;;;;;;;12.27;9.23;;;6.90;99.90;;;;;;5049939;28;20260;-76
2022/04/05 05:35:21;;;;;;;12.90;9.47;;;6.90;99.90;;;;;;5050993;28;20232;-81
2022/04/05 05:37:48;;;;;;;12.17;9.33;;;6.90;99.90;;;;;;5034928;28;20225;-79
2022/04/05 05:40:16;;;;;;;12.05;10.20;;;6.90;99.90;;;;;;5051337;28;20428;-77
2022/04/05 05:42:55;;;;;;;10.37;9.23;;;6.90;99.90;;;;;;5050354;28;20221;-80
2022/04/05 05:45:22;;;;;;;12.23;9.97;;;6.90;99.90;;;;;;5034605;28;20201;-76
2022/04/05 05:47:48;;;;;;;12.83;9.60;;;6.90;99.90;;;;;;5046483;28;20182;-78
2022/04/05 05:50:14;;;;;;;12.30;9.37;;;6.90;99.90;;;;;;5051974;28;20265;-79
2022/04/05 05:52:41;;;;;;;10.10;8.27;;;6.90;99.90;;;;;;5052013;28;20288;-79
2022/04/05 05:55:11;;;;;;;11.97;9.20;;;6.90;99.90;;;;;;5050747;28;20232;-78
2022/04/05 05:57:38;;;;;;;14.03;9.20;;;7.00;99.90;;;;;;5056167;28;20255;-79
2022/04/05 06:00:09;;;;;;;10.73;9.40;;;7.00;99.90;;;;;;5053087;28;20685;-79
2022/04/05 06:02:39;;;;;;;13.97;10.10;;;7.00;99.90;;;;;;5032862;28;20215;-79
2022/04/05 06:05:06;;;;;;;11.43;9.90;;;7.00;99.90;;;;;;5051827;28;20249;-79
2022/04/05 06:07:34;;;;;;;10.67;9.10;;;6.90;99.90;;;;;;5053001;28;20186;-78
2022/04/05 06:10:04;;;;;;;13.33;10.00;;;6.90;99.90;;;;;;5054607;28;20254;-78
2022/04/05 06:12:30;;;;;;;13.17;10.33;;;6.90;99.90;;;;;;5051889;28;20189;-78
2022/04/05 06:14:56;;;;;;;12.13;9.67;;;6.90;99.90;;;;;;5052444;28;20209;-78
2022/04/05 06:17:22;;;;;;;10.07;9.00;;;6.90;99.90;;;;;;5056550;28;20178;-76
2022/04/05 06:19:48;;;;;;;11.67;9.77;;;6.90;99.90;;;;;;5048715;28;20206;-75
2022/04/05 06:22:14;;;;;;;12.60;9.93;;;6.90;99.90;;;;;;5050529;28;20863;-76
2022/04/05 06:24:39;;;;;;;12.63;9.70;;;6.90;99.90;;;;;;5048411;28;20205;-76
2022/04/05 06:27:05;;;;;;;12.43;9.67;;;6.90;99.90;;;;;;5050700;28;20182;-77
2022/04/05 06:29:32;;;;;;;13.23;9.33;;;6.90;99.90;;;;;;5050157;28;20311;-77
2022/04/05 06:31:57;;;;;;;12.13;9.47;;;6.90;99.90;;;;;;5050159;28;20200;-76
2022/04/05 06:34:25;;;;;;;11.87;9.17;;;6.90;99.90;;;;;;5047500;28;20205;-76
2022/04/05 06:36:53;;;;;;;13.33;9.80;;;7.00;99.90;;;;;;5048681;28;20197;-76
2022/04/05 06:39:19;;;;;;;12.70;9.63;;;7.00;99.90;;;;;;5048065;28;20719;-76
2022/04/05 06:41:46;;;;;;;13.37;10.60;;;6.90;99.90;;;;;;5044799;28;20186;-76
2022/04/05 06:44:12;;;;;;;15.70;10.53;;;7.00;99.90;;;;;;5047797;28;20700;-76
2022/04/05 06:46:38;;;;;;;11.57;10.00;;;6.90;99.90;;;;;;5047278;28;20185;-76
2022/04/05 06:49:04;;;;;;;11.37;10.00;;;6.90;99.90;;;;;;5047979;28;20223;-76
2022/04/05 06:51:30;;;;;;;13.37;10.17;;;6.90;99.90;;;;;;5046352;28;20965;-76
2022/04/05 06:53:57;;;;;;;10.57;9.13;;;6.90;99.90;;;;;;5047218;28;20210;-76
2022/04/05 06:56:25;;;;;;;11.83;9.30;;;6.80;99.90;;;;;;5045281;28;20185;-76
2022/04/05 06:58:52;;;;;;;12.17;9.93;;;6.90;99.90;;;;;;5046499;28;20688;-77
2022/04/05 07:01:18;;;;;;;10.07;8.97;;;6.90;99.90;;;;;;5047724;28;20542;-77
2022/04/05 07:03:43;;;;;;;11.73;8.93;;;6.90;99.90;;;;;;5047146;28;20274;-76
2022/04/05 07:06:09;;;;;;;10.67;8.97;;;7.00;99.90;;;;;;5048039;28;20216;-77
2022/04/05 07:08:35;;;;;;;11.67;9.70;;;6.90;99.90;;;;;;5048645;28;20235;-77
2022/04/05 07:11:00;;;;;;;12.67;10.10;;;6.90;99.90;;;;;;5046478;28;20678;-77
2022/04/05 07:13:26;;;;;;;11.73;9.63;;;6.90;99.90;;;;;;5050551;28;20669;-77
2022/04/05 07:15:53;;;;;;;10.83;9.33;;;6.90;99.90;;;;;;5043767;28;20216;-77
2022/04/05 07:18:19;;;;;;;11.60;10.33;;;6.90;99.90;;;;;;5049964;28;20288;-77
2022/04/05 07:20:46;;;;;;;12.53;9.90;;;6.90;99.90;;;;;;5051485;28;20264;-77
2022/04/05 07:23:12;;;;;;;12.73;10.17;;;7.00;99.90;;;;;;5048487;28;20190;-77
2022/04/05 07:25:37;;;;;;;11.57;9.70;;;7.00;99.90;;;;;;5047606;28;20196;-77
2022/04/05 07:28:04;;;;;;;13.90;10.50;;;6.90;99.90;;;;;;5048559;28;20177;-77
2022/04/05 07:30:30;;;;;;;12.40;10.20;;;6.90;99.90;;;;;;5049791;28;20274;-77
2022/04/05 07:32:55;;;;;;;12.77;10.13;;;6.90;99.90;;;;;;5047430;28;21093;-76
2022/04/05 07:35:21;;;;;;;12.87;10.03;;;7.00;99.90;;;;;;5049410;28;20258;-76
2022/04/05 07:37:48;;;;;;;13.90;11.30;;;7.00;99.90;;;;;;5048510;28;20186;-76
2022/04/05 07:40:15;;;;;;;14.20;11.10;;;6.90;99.90;;;;;;5048468;28;20268;-77
2022/04/05 07:42:42;;;;;;;14.00;10.83;;;6.90;99.90;;;;;;5048517;28;20246;-76
2022/04/05 07:45:09;;;;;;;14.70;10.53;;;6.90;99.90;;;;;;5049630;28;20209;-76
2022/04/05 07:47:36;;;;;;;13.23;10.97;;;6.90;99.90;;;;;;5030167;28;20177;-78
2022/04/05 07:50:04;;;;;;;16.27;11.90;;;6.90;99.90;;;;;;5048326;28;20646;-76
2022/04/05 07:52:29;;;;;;;13.93;11.57;;;6.90;99.90;;;;;;5048678;28;20260;-76
2022/04/05 07:54:55;;;;;;;14.23;10.60;;;6.90;99.90;;;;;;5047204;28;20350;-76
2022/04/05 07:57:21;;;;;;;13.67;10.90;;;6.90;99.90;;;;;;5047669;28;20192;-77
2022/04/05 07:59:47;;;;;;;14.80;11.47;;;6.90;99.90;;;;;;5047790;28;20231;-76
2022/04/05 08:02:13;;;;;;;14.90;11.37;;;6.90;99.90;;;;;;5047308;28;20182;-76
2022/04/05 08:04:39;;;;;;;15.80;11.20;;;6.90;99.90;;;;;;5049517;28;20251;-76
2022/04/05 08:07:06;;;;;;;15.00;10.83;;;6.90;99.90;;;;;;5032180;28;20192;-76
2022/04/05 08:09:32;;;;;;;12.30;10.20;;;6.90;99.90;;;;;;5046166;28;20188;-77
2022/04/05 08:11:58;;;;;;;12.57;10.30;;;6.90;99.90;;;;;;5049771;28;20315;-76
2022/04/05 08:14:27;;;;;;;11.97;10.17;;;6.90;99.90;;;;;;5049662;28;20289;-76
2022/04/05 08:16:57;;;;;;;13.10;10.60;;;7.00;99.90;;;;;;5048310;28;20304;-76
2022/04/05 08:19:23;;;;;;;12.73;10.20;;;7.00;99.90;;;;;;5047695;28;20209;-76
2022/04/05 08:21:49;;;;;;;12.17;10.23;;;7.00;99.90;;;;;;5048461;28;20657;-76
2022/04/05 08:24:15;;;;;;;14.87;10.70;;;7.00;99.90;;;;;;5049286;28;20198;-76
2022/04/05 08:26:41;;;;;;;13.20;10.33;;;7.00;99.90;;;;;;5045738;28;20174;-76
2022/04/05 08:29:07;;;;;;;13.17;10.37;;;7.00;99.90;;;;;;5048034;28;20189;-76
2022/04/05 08:31:32;;;;;;;11.57;9.70;;;7.00;99.90;;;;;;5048668;28;20192;-77
2022/04/05 08:33:58;;;;;;;13.27;10.20;;;7.00;99.90;;;;;;5048909;28;20216;-76
2022/04/05 08:36:24;;;;;;;14.30;10.53;;;7.00;99.90;;;;;;5047086;28;20184;-76
2022/04/05 08:38:50;;;;;;;15.53;10.33;;;7.00;99.90;;;;;;5048846;28;20653;-76
2022/04/05 08:41:19;;;;;;;14.57;11.23;;;7.10;99.90;;;;;;5046784;28;20647;-76
2022/04/05 08:43:47;;;;;;;16.20;11.13;;;7.20;99.90;;;;;;5050746;28;20186;-76
2022/04/05 08:46:14;;;;;;;12.57;10.43;;;7.20;99.90;;;;;;5051924;28;20205;-75
2022/04/05 08:48:39;;;;;;;12.23;9.80;;;7.20;99.90;;;;;;5051494;28;20182;-77
2022/04/05 08:51:06;;;;;;;12.73;9.83;;;7.20;99.90;;;;;;5052404;28;20184;-76
2022/04/05 08:53:33;;;;;;;12.43;10.10;;;7.20;99.90;;;;;;5052945;28;20608;-77
2022/04/05 08:56:01;;;;;;;14.40;10.13;;;7.20;99.90;;;;;;5050832;28;20188;-76
2022/04/05 08:58:26;;;;;;;12.87;10.33;;;7.30;99.90;;;;;;5052494;28;20181;-77
2022/04/05 09:00:53;;;;;;;14.17;10.73;;;7.30;99.90;;;;;;5049806;28;20212;-76
2022/04/05 09:03:19;;;;;;;12.57;10.30;;;7.30;99.90;;;;;;5052936;28;20181;-77
2022/04/05 09:05:45;;;;;;;12.50;10.73;;;7.30;99.90;;;;;;5051342;28;20285;-76
2022/04/05 09:08:28;;;;;;;12.77;9.97;;;7.30;99.90;;;;;;5051602;28;20205;-77
2022/04/05 09:11:03;;;;;;;12.20;9.53;;;7.30;99.90;;;;;;5051054;28;20601;-77
2022/04/05 09:13:29;;;;;;;12.30;9.70;;;7.40;99.90;;;;;;5050841;28;20185;-77
2022/04/05 09:15:59;;;;;;;11.43;9.60;;;7.40;99.90;;;;;;5035347;28;20210;-76
2022/04/05 09:18:42;;;;;;;12.03;9.33;;;7.40;99.90;;;;;;5050152;28;20607;-76
2022/04/05 09:21:10;;;;;;;14.07;9.93;;;7.50;99.90;;;;;;5032457;28;20214;-77
2022/04/05 09:23:43;;;;;;;16.17;10.50;;;7.50;99.90;;;;;;5051322;28;20182;-76
2022/04/05 09:26:18;;;;;;;12.33;10.43;;;7.50;99.90;;;;;;5052450;28;20520;-76
2022/04/05 09:28:46;;;;;;;13.77;10.07;;;7.50;99.90;;;;;;5051689;28;20973;-77
2022/04/05 09:31:17;;;;;;;10.80;9.63;;;7.50;99.90;;;;;;5051527;28;20204;-76
2022/04/05 09:34:12;;;;;;;13.07;9.90;;;7.60;99.90;;;;;;5049571;28;20277;-76
2022/04/05 09:36:41;;;;;;;13.10;9.60;;;7.60;99.90;;;;;;5050905;28;20189;-76
2022/04/05 09:39:17;;;;;;;11.37;9.87;;;7.60;99.90;;;;;;5051971;28;20585;-76
2022/04/05 09:41:47;;;;;;;12.37;9.30;;;7.70;99.90;;;;;;5033439;28;20202;-77
2022/04/05 09:44:34;;;;;;;12.27;10.23;;;7.70;99.90;;;;;;5051163;28;20201;-78
2022/04/05 09:47:03;;;;;;;12.07;9.53;;;7.70;99.90;;;;;;5049931;28;20166;-77
2022/04/05 09:49:38;;;;;;;11.47;9.30;;;7.80;99.90;;;;;;5050955;28;20185;-76
2022/04/05 09:52:26;;;;;;;11.33;9.50;;;7.80;99.90;;;;;;5050888;28;20276;-76
2022/04/05 09:54:53;;;;;;;12.17;9.40;;;7.90;99.90;;;;;;5049561;28;20214;-76
2022/04/05 09:57:32;;;;;;;11.03;9.10;;;7.90;99.90;;;;;;5051655;28;20181;-75
2022/04/05 10:00:19;;;;;;;11.13;8.47;;;7.90;99.90;;;;;;5050404;28;20205;-76
2022/04/05 10:03:02;;;;;;;9.73;8.37;;;7.90;99.90;;;;;;5051545;28;20185;-76
2022/04/05 10:05:30;;;;;;;8.97;8.07;;;8.00;99.90;;;;;;5048266;28;20204;-76
2022/04/05 10:07:56;;;;;;;10.60;8.73;;;8.10;99.90;;;;;;5051860;28;20633;-76
2022/04/05 10:10:23;;;;;;;10.77;9.03;;;8.10;99.90;;;;;;5049173;28;20180;-76
2022/04/05 10:12:50;;;;;;;10.47;9.10;;;8.20;99.90;;;;;;5050939;28;20269;-76
2022/04/05 10:15:16;;;;;;;11.13;9.50;;;8.30;99.90;;;;;;5049137;28;20284;-76
2022/04/05 10:17:45;;;;;;;11.40;9.50;;;8.30;99.90;;;;;;5050097;28;20186;-76
2022/04/05 10:20:17;;;;;;;11.37;9.20;;;8.30;99.90;;;;;;5048911;28;20209;-76
2022/04/05 10:22:43;;;;;;;14.17;9.57;;;8.40;99.90;;;;;;5048692;28;20192;-76
2022/04/05 10:25:10;;;;;;;11.60;9.20;;;8.40;99.90;;;;;;5051093;28;20194;-76
2022/04/05 10:27:37;;;;;;;11.87;9.90;;;8.50;99.90;;;;;;5050075;28;20212;-76
2022/04/05 10:30:08;;;;;;;14.33;10.47;;;8.60;99.90;;;;;;5049353;28;20261;-76
2022/04/05 10:32:47;;;;;;;13.23;10.77;;;8.60;99.90;;;;;;5048666;28;20182;-76
2022/04/05 10:35:14;;;;;;;11.43;9.07;;;8.60;99.90;;;;;;5049325;28;20197;-76
2022/04/05 10:37:41;;;;;;;11.20;10.03;;;8.60;99.90;;;;;;5046506;28;20189;-76
2022/04/05 10:40:10;;;;;;;9.70;8.40;;;8.70;99.90;;;;;;5047818;28;20304;-76
2022/04/05 10:42:57;;;;;;;12.20;9.50;;;8.70;99.90;;;;;;5047253;28;20177;-76
2022/04/05 10:45:34;;;;;;;11.93;9.57;;;8.70;99.90;;;;;;5048857;28;20209;-77
2022/04/05 10:48:14;;;;;;;11.50;10.27;;;8.60;99.90;;;;;;5051783;28;20178;-78
2022/04/05 10:50:43;;;;;;;14.67;10.03;;;8.70;99.90;;;;;;5047038;28;20213;-76
2022/04/05 10:53:17;;;;;;;10.87;8.90;;;8.70;99.90;;;;;;5050311;28;20570;-76
2022/04/05 10:56:06;;;;;;;11.80;9.77;;;8.70;99.90;;;;;;5049698;28;20259;-76
2022/04/05 10:58:41;;;;;;;13.20;9.97;;;8.60;99.90;;;;;;5044208;28;20193;-77
2022/04/05 11:01:22;;;;;;;11.70;9.73;;;8.70;99.90;;;;;;5049014;28;20231;-79
2022/04/05 11:04:09;;;;;;;11.13;9.27;;;8.70;99.90;;;;;;5053311;28;20273;-81
2022/04/05 11:07:06;;;;;;;10.57;8.63;;;8.80;99.90;;;;;;5047310;28;21018;-80
2022/04/05 11:09:53;;;;;;;9.80;7.90;;;8.80;99.90;;;;;;5052856;28;20178;-80
2022/04/05 11:12:28;;;;;;;9.47;7.80;;;8.80;99.90;;;;;;5046223;28;20266;-80
2022/04/05 11:15:01;;;;;;;10.90;8.03;;;8.90;99.90;;;;;;5034251;28;20227;-79
2022/04/05 11:17:28;;;;;;;9.30;8.13;;;9.00;99.90;;;;;;5052747;28;20224;-79
2022/04/05 11:20:00;;;;;;;12.57;8.00;;;8.90;99.90;;;;;;5054162;28;20231;-78
2022/04/05 11:22:39;;;;;;;10.67;7.80;;;8.90;99.90;;;;;;5056305;28;20240;-80
2022/04/05 11:25:13;;;;;;;8.73;7.73;;;8.90;99.90;;;;;;5053239;28;20258;-79
2022/04/05 11:27:49;;;;;;;10.13;8.27;;;9.00;99.90;;;;;;5046670;28;20269;-81
2022/04/05 11:30:21;;;;;;;9.73;7.13;;;9.00;99.90;;;;;;5034079;28;20185;-79
2022/04/05 11:33:09;;;;;;;7.73;6.93;;;9.00;99.90;;;;;;5047751;28;20240;-79
2022/04/05 11:35:59;;;;;;;8.23;6.87;;;9.00;99.90;;;;;;5044577;28;20217;-82
2022/04/05 11:38:30;;;;;;;7.83;7.03;;;9.10;99.90;;;;;;5057397;28;20193;-79
2022/04/05 11:41:08;;;;;;;8.70;7.13;;;9.10;99.90;;;;;;5055253;28;20217;-79
2022/04/05 11:43:35;;;;;;;7.87;6.50;;;9.20;99.90;;;;;;5065625;28;20189;-79
2022/04/05 11:46:11;;;;;;;8.57;6.70;;;9.20;99.90;;;;;;5059317;28;20217;-81
2022/04/05 11:48:43;;;;;;;9.57;7.17;;;9.20;99.90;;;;;;5049025;28;20247;-81
2022/04/05 11:51:11;;;;;;;7.60;6.80;;;9.30;99.90;;;;;;5046921;28;20244;-82
2022/04/05 11:53:38;;;;;;;9.50;7.50;;;9.30;99.90;;;;;;5045573;28;20189;-81
2022/04/05 11:56:24;;;;;;;8.37;7.37;;;9.40;99.90;;;;;;5046768;28;20209;-83
2022/04/05 11:58:52;;;;;;;8.93;7.20;;;9.40;99.90;;;;;;5046480;28;20558;-81
2022/04/05 12:01:28;;;;;;;7.97;6.90;;;9.50;99.90;;;;;;5047019;28;20706;-81
2022/04/05 12:04:05;;;;;;;7.87;7.07;;;9.50;99.90;;;;;;5025299;28;20197;-80
2022/04/05 12:06:34;;;;;;;7.87;6.20;;;9.60;99.90;;;;;;5047172;28;20190;-83
2022/04/05 12:09:05;;;;;;;8.37;7.57;;;9.60;99.90;;;;;;5028991;28;20200;-80
2022/04/05 12:11:34;;;;;;;7.67;6.60;;;9.70;99.90;;;;;;5045655;28;20672;-78
2022/04/05 12:14:04;;;;;;;6.90;6.03;;;9.70;99.90;;;;;;5045297;28;20257;-83
2022/04/05 12:16:43;;;;;;;7.83;6.60;;;9.80;99.90;;;;;;5051687;28;20189;-81
2022/04/05 12:19:09;;;;;;;7.20;6.50;;;9.90;99.90;;;;;;5064388;28;20665;-81
2022/04/05 12:21:35;;;;;;;7.93;6.95;;;9.90;99.90;;;;;;5029713;28;20784;-82
2022/04/05 12:24:01;;;;;;;7.60;6.80;;;10.00;99.90;;;;;;5046596;28;20490;-84
2022/04/05 12:26:31;;;;;;;8.53;7.10;;;10.00;99.90;;;;;;5032259;28;20185;-85
2022/04/05 12:28:59;;;;;;;9.23;7.70;;;10.00;99.90;;;;;;5033162;28;20862;-79
2022/04/05 12:31:28;;;;;;;6.80;6.10;;;9.90;99.90;;;;;;5054151;28;20184;-78
2022/04/05 12:33:56;;;;;;;9.83;7.20;;;9.90;99.90;;;;;;5056481;28;20238;-79
2022/04/05 12:36:25;;;;;;;10.40;7.13;;;9.90;99.90;;;;;;5056478;28;20189;-79
2022/04/05 12:38:51;;;;;;;8.13;6.90;;;9.90;99.90;;;;;;5052695;28;20798;-79
2022/04/05 12:41:18;;;;;;;9.43;7.13;;;9.80;99.90;;;;;;5056939;28;20190;-79
2022/04/05 12:43:44;;;;;;;8.17;7.33;;;9.80;99.90;;;;;;5053956;28;20257;-78
2022/04/05 12:46:12;;;;;;;8.80;7.50;;;9.80;99.90;;;;;;5051377;28;20594;-79
2022/04/05 12:48:39;;;;;;;8.73;7.37;;;9.70;99.90;;;;;;5048978;28;20189;-78
2022/04/05 12:51:05;;;;;;;8.50;7.23;;;9.70;99.90;;;;;;5052443;28;20198;-78
2022/04/05 12:53:35;;;;;;;8.50;7.60;;;9.70;99.90;;;;;;5053177;28;20193;-79
2022/04/05 12:56:08;;;;;;;8.83;7.93;;;9.70;99.90;;;;;;5046231;28;20197;-79
2022/04/05 12:58:45;;;;;;;9.77;6.93;;;9.70;99.90;;;;;;5053114;28;20261;-78